Inicio METAR Ruta Wind Satelite

Informe Meteorológico

Fecha: 2020/09/22 21:41:27 Local
2020.09.23 02:41 UTC


Estado: VENCIDO
Operación:
Station name not available
2020.08.14 1400 UTC
Wind: Variable at 2 MPH (2 KT):0
Visibility: greater than 7 mile(s):0
Sky conditions: mostly cloudy
Temperature: 82 F (28 C)
Dew Point: 73 F (23 C)
Relative Humidity: 74%
Pressure (altimeter): 29.87 in. Hg (1011 hPa)
ob: SKYP 141400Z VRB02KT 9999 SCT020 BKN040 28/23 A2987 RMK VCSH/SW
cycle: 14